createdAt,value
2018-09-04T00:02:10.536Z,75.20
2018-09-04T00:04:39.157Z,75.10
2018-09-04T00:07:07.599Z,74.90
2018-09-04T00:09:35.967Z,74.70
2018-09-04T00:12:04.517Z,74.60
2018-09-04T00:14:33.000Z,74.80
2018-09-04T00:17:01.487Z,74.60
2018-09-04T00:19:29.902Z,74.60
2018-09-04T00:21:58.279Z,74.60
2018-09-04T00:24:26.621Z,74.70
2018-09-04T00:26:55.105Z,75.10
2018-09-04T00:29:23.511Z,74.90
2018-09-04T00:31:52.476Z,75.10
2018-09-04T00:34:20.968Z,75.10
2018-09-04T00:36:49.443Z,74.90
2018-09-04T00:39:17.909Z,74.90
2018-09-04T00:41:46.842Z,75.00
2018-09-04T00:44:15.309Z,74.90
2018-09-04T00:46:43.862Z,75.10
2018-09-04T00:49:12.285Z,75.10
2018-09-04T00:51:40.925Z,75.30
2018-09-04T00:54:09.340Z,75.10
2018-09-04T00:56:37.884Z,75.10
2018-09-04T00:59:06.651Z,75.20
2018-09-04T01:01:34.962Z,75.20
2018-09-04T01:04:03.354Z,75.30
2018-09-04T01:06:32.020Z,75.30
2018-09-04T01:09:00.481Z,75.30
2018-09-04T01:11:28.869Z,75.40
2018-09-04T01:13:57.270Z,75.50
2018-09-04T01:16:25.634Z,75.60
2018-09-04T01:18:54.028Z,75.50
2018-09-04T01:21:22.415Z,75.50
2018-09-04T01:23:50.794Z,75.60
2018-09-04T01:26:19.253Z,75.60
2018-09-04T01:28:47.606Z,75.60
2018-09-04T01:31:16.086Z,75.70
2018-09-04T01:33:44.506Z,75.80
2018-09-04T01:36:13.094Z,75.70
2018-09-04T01:38:41.477Z,75.80
2018-09-04T01:41:09.841Z,75.90
2018-09-04T01:43:38.268Z,76.00
2018-09-04T01:46:06.591Z,76.10
2018-09-04T01:48:34.952Z,76.90
2018-09-04T01:51:03.460Z,76.20
2018-09-04T01:53:31.863Z,76.20
2018-09-04T01:56:00.241Z,76.20
2018-09-04T01:58:28.626Z,76.20
2018-09-04T02:00:57.184Z,76.30
2018-09-04T02:03:25.630Z,76.90
2018-09-04T02:05:54.026Z,76.30
2018-09-04T02:08:22.436Z,76.40
2018-09-04T02:10:51.002Z,76.50
2018-09-04T02:13:19.459Z,76.50
2018-09-04T02:15:47.856Z,76.60
2018-09-04T02:18:16.541Z,76.60
2018-09-04T02:20:45.028Z,76.70
2018-09-04T02:23:13.539Z,77.40
2018-09-04T02:25:41.922Z,76.90
2018-09-04T02:28:10.278Z,76.90
2018-09-04T02:30:38.675Z,77.60
2018-09-04T02:33:07.256Z,76.90
2018-09-04T02:35:35.640Z,77.00
2018-09-04T02:38:04.335Z,77.10
2018-09-04T02:40:32.792Z,77.10
2018-09-04T02:43:01.137Z,77.20
2018-09-04T02:45:29.632Z,77.30
2018-09-04T02:47:57.991Z,77.40
2018-09-04T02:50:26.422Z,77.40
2018-09-04T02:52:54.790Z,77.50
2018-09-04T02:55:23.138Z,77.60
2018-09-04T02:57:51.618Z,77.90
2018-09-04T03:00:20.068Z,78.00
2018-09-04T03:02:48.627Z,78.30
2018-09-04T03:05:17.203Z,78.40
2018-09-04T03:07:45.587Z,78.70
2018-09-04T03:10:14.201Z,78.50
2018-09-04T03:12:42.684Z,78.40
2018-09-04T03:15:11.072Z,78.50
2018-09-04T03:17:39.468Z,78.40
2018-09-04T03:20:07.844Z,78.30
2018-09-04T03:22:36.478Z,78.20
2018-09-04T03:25:04.998Z,78.20
2018-09-04T03:27:33.417Z,78.10
2018-09-04T03:30:01.833Z,78.20
2018-09-04T03:32:30.243Z,78.00
2018-09-04T03:34:58.696Z,77.80
2018-09-04T03:37:27.087Z,77.70
2018-09-04T03:39:55.567Z,77.90
2018-09-04T03:42:24.048Z,78.00
2018-09-04T03:44:52.476Z,78.00
2018-09-04T03:47:20.915Z,78.20
2018-09-04T03:49:49.649Z,78.20
2018-09-04T03:52:18.622Z,78.30
2018-09-04T03:54:46.909Z,78.40
2018-09-04T03:57:15.300Z,78.40
2018-09-04T03:59:43.633Z,78.40
2018-09-04T04:02:12.007Z,78.70
2018-09-04T04:04:40.527Z,78.90
2018-09-04T04:07:08.905Z,79.10
2018-09-04T04:09:37.288Z,79.30
2018-09-04T04:12:05.718Z,79.30
2018-09-04T04:14:34.038Z,79.50
2018-09-04T04:17:02.538Z,79.50
2018-09-04T04:19:30.883Z,79.30
2018-09-04T04:21:59.263Z,79.40
2018-09-04T04:24:27.689Z,79.50
2018-09-04T04:26:56.102Z,79.60
2018-09-04T04:29:24.476Z,79.40
2018-09-04T04:31:52.811Z,79.70
2018-09-04T04:34:21.175Z,79.50
2018-09-04T04:36:49.543Z,79.40
2018-09-04T04:39:17.944Z,79.30
2018-09-04T04:41:46.279Z,79.50
2018-09-04T04:44:14.673Z,79.40
2018-09-04T04:46:43.014Z,79.60
2018-09-04T04:49:11.410Z,79.70
2018-09-04T04:51:39.783Z,79.70
2018-09-04T04:54:08.271Z,79.60
2018-09-04T04:56:36.621Z,79.70
2018-09-04T04:59:05.219Z,79.80
2018-09-04T05:01:33.648Z,79.80
2018-09-04T05:04:02.092Z,79.70
2018-09-04T05:06:30.701Z,79.40
2018-09-04T05:08:59.326Z,79.50
2018-09-04T05:11:27.821Z,79.50
2018-09-04T05:13:56.227Z,79.70
2018-09-04T05:16:24.860Z,79.70
2018-09-04T05:18:53.441Z,79.60
2018-09-04T05:21:22.736Z,79.60
2018-09-04T05:23:51.149Z,79.90
2018-09-04T05:26:19.486Z,79.90
2018-09-04T05:28:47.906Z,79.80
2018-09-04T05:31:16.401Z,80.00
2018-09-04T05:33:45.972Z,80.20
2018-09-04T05:36:14.919Z,80.20
2018-09-04T05:38:43.291Z,80.50
2018-09-04T05:41:11.683Z,80.60
2018-09-04T05:43:52.479Z,80.70
2018-09-04T05:46:38.648Z,80.70
2018-09-04T05:49:08.192Z,80.50
2018-09-04T05:51:36.567Z,80.80
2018-09-04T05:54:05.154Z,80.70
2018-09-04T05:56:34.157Z,80.70
2018-09-04T05:59:02.738Z,80.70
2018-09-04T06:01:31.730Z,80.50
2018-09-04T06:04:00.586Z,80.60
2018-09-04T06:06:28.945Z,80.80
2018-09-04T06:08:58.515Z,81.00
2018-09-04T06:11:27.565Z,80.90
2018-09-04T06:13:56.268Z,81.10
2018-09-04T06:16:24.613Z,81.00
2018-09-04T06:18:53.018Z,81.00
2018-09-04T06:21:21.424Z,81.00
2018-09-04T06:23:49.768Z,81.00
2018-09-04T06:26:18.174Z,81.10
2018-09-04T06:28:46.641Z,81.20
2018-09-04T06:31:15.046Z,81.00
2018-09-04T06:33:43.490Z,80.60
2018-09-04T06:36:12.226Z,80.40
2018-09-04T06:38:42.001Z,80.40
2018-09-04T06:41:11.622Z,80.30
2018-09-04T06:43:40.083Z,80.30
2018-09-04T06:46:08.695Z,80.40
2018-09-04T06:48:37.445Z,80.40
2018-09-04T06:51:07.137Z,80.30
2018-09-04T06:53:38.341Z,80.00
2018-09-04T06:56:07.983Z,80.30
2018-09-04T06:58:37.378Z,79.90
2018-09-04T07:01:06.187Z,80.50
2018-09-04T07:03:35.712Z,79.70
2018-09-04T07:06:05.565Z,79.80
2018-09-04T07:08:35.339Z,79.90
2018-09-04T07:11:04.465Z,79.80
2018-09-04T07:13:34.582Z,79.60
2018-09-04T07:16:04.831Z,79.60
2018-09-04T07:18:34.617Z,79.40
2018-09-04T07:21:04.037Z,79.20
2018-09-04T07:23:33.515Z,79.60
2018-09-04T07:26:03.570Z,79.90
2018-09-04T07:28:33.760Z,79.80
2018-09-04T07:31:02.746Z,79.50
2018-09-04T07:33:32.855Z,79.40
2018-09-04T07:36:02.371Z,79.40
2018-09-04T07:38:30.823Z,79.40
2018-09-04T07:40:59.436Z,79.40
2018-09-04T07:43:27.755Z,79.30
2018-09-04T07:45:56.142Z,79.20
2018-09-04T07:48:24.773Z,79.60
2018-09-04T07:50:53.136Z,79.70
2018-09-04T07:53:21.887Z,79.60
2018-09-04T07:55:50.395Z,79.70
2018-09-04T07:58:18.819Z,79.20
2018-09-04T08:00:47.264Z,79.20
2018-09-04T08:03:15.741Z,78.80
2018-09-04T08:05:44.612Z,78.90
2018-09-04T08:08:13.209Z,78.90
2018-09-04T08:10:41.735Z,78.70
2018-09-04T08:13:10.576Z,78.50
2018-09-04T08:15:39.250Z,78.60
2018-09-04T08:18:07.730Z,77.90
2018-09-04T08:20:36.601Z,78.00
2018-09-04T08:23:05.193Z,78.50
2018-09-04T08:25:34.767Z,77.50
2018-09-04T08:28:03.134Z,77.90
2018-09-04T08:30:31.527Z,77.40
2018-09-04T08:33:00.003Z,77.10
2018-09-04T08:35:28.295Z,76.70
2018-09-04T08:38:00.182Z,76.60
2018-09-04T08:40:30.904Z,75.70
2018-09-04T08:42:59.925Z,75.30
2018-09-04T08:45:28.615Z,75.20
2018-09-04T08:48:00.558Z,74.50
2018-09-04T08:50:34.281Z,75.00
2018-09-04T08:53:02.864Z,75.00
2018-09-04T08:55:32.093Z,73.40
2018-09-04T08:58:00.546Z,74.60
2018-09-04T09:00:29.044Z,73.50
2018-09-04T09:02:57.865Z,72.20
2018-09-04T09:05:26.755Z,72.30
2018-09-04T09:07:55.291Z,73.00
2018-09-04T09:10:24.023Z,72.30
2018-09-04T09:12:52.632Z,71.90
2018-09-04T09:15:21.029Z,72.10
2018-09-04T09:17:49.693Z,70.60
2018-09-04T09:20:18.323Z,69.40
2018-09-04T09:22:46.676Z,70.00
2018-09-04T09:25:15.151Z,68.90
2018-09-04T09:27:43.740Z,68.90
2018-09-04T09:30:13.258Z,69.10
2018-09-04T09:32:41.623Z,69.40
2018-09-04T09:35:10.245Z,70.00
2018-09-04T09:37:39.054Z,70.30
2018-09-04T09:40:08.165Z,70.50
2018-09-04T09:42:36.607Z,70.70
2018-09-04T09:45:05.748Z,69.80
2018-09-04T09:47:34.485Z,69.60
2018-09-04T09:50:03.346Z,69.50
2018-09-04T09:52:31.734Z,69.60
2018-09-04T09:55:00.250Z,70.10
2018-09-04T09:57:29.126Z,69.90
2018-09-04T09:59:57.622Z,69.60
2018-09-04T10:02:31.353Z,68.60
2018-09-04T10:04:59.762Z,67.10
2018-09-04T10:07:28.498Z,66.00
2018-09-04T10:09:56.902Z,65.30
2018-09-04T10:12:25.442Z,65.30
2018-09-04T10:14:53.825Z,64.50
2018-09-04T10:17:22.239Z,63.80
2018-09-04T10:19:50.850Z,63.90
2018-09-04T10:22:19.353Z,62.40
2018-09-04T10:24:48.583Z,62.80
2018-09-04T10:27:17.164Z,64.40
2018-09-04T10:29:46.044Z,63.50
2018-09-04T10:32:14.471Z,63.70
2018-09-04T10:34:44.070Z,63.20
2018-09-04T10:37:12.887Z,62.00
2018-09-04T10:39:46.748Z,62.10
2018-09-04T10:42:19.362Z,61.80
2018-09-04T10:44:47.723Z,61.30
2018-09-04T10:47:16.078Z,60.30
2018-09-04T10:49:44.491Z,60.90
2018-09-04T10:52:12.856Z,60.50
2018-09-04T10:54:41.282Z,60.60
2018-09-04T10:57:09.674Z,60.30
2018-09-04T10:59:38.032Z,59.20
2018-09-04T11:02:06.427Z,57.60
2018-09-04T11:04:34.794Z,56.60
2018-09-04T11:07:03.145Z,56.80
2018-09-04T11:09:31.593Z,57.50
2018-09-04T11:11:59.978Z,57.10
2018-09-04T11:14:28.462Z,56.40
2018-09-04T11:16:56.922Z,56.30
2018-09-04T11:19:25.363Z,55.60
2018-09-04T11:21:53.861Z,54.90
2018-09-04T11:24:22.251Z,55.20
2018-09-04T11:26:50.647Z,54.90
2018-09-04T11:29:19.042Z,54.80
2018-09-04T11:31:47.450Z,54.30
2018-09-04T11:34:15.833Z,54.10
2018-09-04T11:36:44.178Z,53.50
2018-09-04T11:39:12.675Z,53.10
2018-09-04T11:41:41.076Z,52.90
2018-09-04T11:44:09.560Z,52.40
2018-09-04T11:46:38.010Z,51.70
2018-09-04T11:49:06.477Z,50.90
2018-09-04T11:52:54.126Z,50.50
2018-09-04T11:55:22.669Z,49.90
2018-09-04T11:57:51.136Z,48.40
2018-09-04T12:00:26.638Z,48.90
2018-09-04T12:02:55.013Z,48.80
2018-09-04T12:05:23.526Z,49.10
2018-09-04T12:07:51.910Z,49.30
2018-09-04T12:10:20.238Z,49.40
2018-09-04T12:12:48.718Z,48.60
2018-09-04T12:15:17.025Z,48.50
2018-09-04T12:17:45.767Z,47.00
2018-09-04T12:20:54.795Z,47.60
2018-09-04T12:23:23.837Z,47.10
2018-09-04T12:25:53.701Z,46.80
2018-09-04T12:28:22.255Z,46.90
2018-09-04T12:30:50.697Z,46.80
2018-09-04T12:33:19.334Z,46.60
2018-09-04T12:35:47.712Z,45.90
2018-09-04T12:38:17.903Z,45.50
2018-09-04T12:40:46.870Z,45.60
2018-09-04T12:43:15.264Z,45.10
2018-09-04T12:45:51.134Z,44.90
2018-09-04T12:48:22.583Z,44.80
2018-09-04T12:50:51.842Z,44.20
2018-09-04T12:53:20.886Z,43.10
2018-09-04T12:55:49.643Z,43.00
2018-09-04T12:58:18.186Z,42.90
2018-09-04T13:00:48.033Z,42.40
2018-09-04T13:03:17.962Z,42.50
2018-09-04T13:05:46.509Z,42.70
2018-09-04T13:08:17.726Z,42.50
2018-09-04T13:10:46.845Z,42.90
2018-09-04T13:13:16.068Z,42.40
2018-09-04T13:15:48.162Z,42.40
2018-09-04T13:18:17.778Z,42.40
2018-09-04T13:20:47.967Z,43.20
2018-09-04T13:23:18.043Z,42.70
2018-09-04T13:25:47.936Z,42.30
2018-09-04T13:28:17.025Z,41.30
2018-09-04T13:30:46.681Z,42.10
2018-09-04T13:33:16.111Z,41.80
2018-09-04T13:35:45.476Z,41.50
2018-09-04T13:38:14.803Z,41.00
2018-09-04T13:40:44.283Z,40.30
2018-09-04T13:43:13.218Z,40.50
2018-09-04T13:45:41.851Z,39.10
2018-09-04T13:48:10.958Z,39.00
2018-09-04T13:50:40.558Z,39.10
2018-09-04T13:53:09.730Z,39.40
2018-09-04T13:55:38.202Z,38.60
2018-09-04T13:58:07.659Z,39.40
2018-09-04T14:00:36.277Z,40.00
2018-09-04T14:03:04.952Z,39.90
2018-09-04T14:05:34.179Z,39.30
2018-09-04T14:08:03.568Z,39.60
2018-09-04T14:10:32.516Z,39.00
2018-09-04T14:13:01.537Z,38.50
2018-09-04T14:15:30.330Z,38.80
2018-09-04T14:17:59.181Z,39.10
2018-09-04T14:20:28.345Z,39.10
2018-09-04T14:22:57.329Z,38.10
2018-09-04T14:25:26.937Z,38.10
2018-09-04T14:27:55.715Z,38.20
2018-09-04T14:30:24.422Z,38.40
2018-09-04T14:32:52.856Z,37.90
2018-09-04T14:35:21.276Z,35.70
2018-09-04T14:37:49.718Z,34.00
2018-09-04T14:40:18.122Z,35.00
2018-09-04T14:42:46.665Z,35.40
2018-09-04T14:45:15.103Z,35.10
2018-09-04T14:47:43.501Z,34.70
2018-09-04T14:50:11.991Z,35.50
2018-09-04T14:52:40.374Z,35.90
2018-09-04T14:55:08.860Z,36.10
2018-09-04T14:57:37.311Z,37.30
2018-09-04T15:00:06.312Z,43.70
2018-09-04T15:02:34.891Z,47.30
2018-09-04T15:05:03.265Z,48.10
2018-09-04T15:07:31.706Z,49.00
2018-09-04T15:10:00.042Z,51.10
2018-09-04T15:12:28.425Z,51.90
2018-09-04T15:14:56.798Z,52.60
2018-09-04T15:17:25.162Z,53.70
2018-09-04T15:19:53.527Z,54.40
2018-09-04T15:22:21.914Z,54.20
2018-09-04T15:24:50.452Z,54.80
2018-09-04T15:27:18.878Z,55.30
2018-09-04T15:29:47.497Z,56.10
2018-09-04T15:32:15.955Z,55.80
2018-09-04T15:34:44.330Z,56.50
2018-09-04T15:37:12.738Z,54.90
2018-09-04T15:39:41.123Z,53.80
2018-09-04T15:42:09.526Z,55.70
2018-09-04T15:44:37.974Z,56.50
2018-09-04T15:47:06.462Z,56.70
2018-09-04T15:49:40.362Z,57.90
2018-09-04T15:52:08.728Z,58.60
2018-09-04T15:54:37.118Z,59.00
2018-09-04T15:57:05.721Z,57.60
2018-09-04T15:59:34.063Z,57.60
2018-09-04T16:02:02.528Z,57.90
2018-09-04T16:04:30.864Z,57.50
2018-09-04T16:06:59.257Z,59.50
2018-09-04T16:09:27.807Z,62.30
2018-09-04T16:11:56.628Z,62.80
2018-09-04T16:14:25.122Z,63.00
2018-09-04T16:16:53.527Z,62.20
2018-09-04T16:19:22.279Z,62.70
2018-09-04T16:21:50.825Z,61.50
2018-09-04T16:24:19.184Z,60.80
2018-09-04T16:26:47.658Z,60.60
2018-09-04T16:29:16.858Z,60.20
2018-09-04T16:31:45.471Z,59.90
2018-09-04T16:34:13.818Z,59.90
2018-09-04T16:36:42.204Z,59.70
2018-09-04T16:39:10.580Z,60.10
2018-09-04T16:41:39.002Z,59.20
2018-09-04T16:44:07.331Z,59.80
2018-09-04T16:46:35.735Z,61.40
2018-09-04T16:49:04.368Z,62.10
2018-09-04T16:51:33.130Z,62.50
2018-09-04T16:54:01.466Z,62.00
2018-09-04T16:56:29.848Z,62.30
2018-09-04T16:58:58.235Z,62.70
2018-09-04T17:01:26.714Z,62.90
2018-09-04T17:03:55.073Z,64.10
2018-09-04T17:06:23.456Z,63.90
2018-09-04T17:08:51.951Z,63.50
2018-09-04T17:11:20.383Z,62.90
2018-09-04T17:13:48.789Z,62.80
2018-09-04T17:16:17.653Z,62.60
2018-09-04T17:18:46.651Z,62.30
2018-09-04T17:21:15.037Z,62.50
2018-09-04T17:23:43.402Z,62.80
2018-09-04T17:26:11.881Z,62.80
2018-09-04T17:28:40.305Z,62.80
2018-09-04T17:31:08.904Z,62.40
2018-09-04T17:33:37.571Z,62.70
2018-09-04T17:36:06.031Z,62.60
2018-09-04T17:38:34.463Z,62.50
2018-09-04T17:41:02.842Z,62.70
2018-09-04T17:43:31.218Z,63.00
2018-09-04T17:45:59.673Z,63.30
2018-09-04T17:48:28.198Z,63.00
2018-09-04T17:50:56.595Z,62.90
2018-09-04T17:53:25.103Z,63.10
2018-09-04T17:55:53.585Z,63.90
2018-09-04T17:58:22.027Z,64.60
2018-09-04T18:00:50.526Z,65.50
2018-09-04T18:03:18.894Z,65.70
2018-09-04T18:05:47.337Z,65.40
2018-09-04T18:08:15.791Z,64.90
2018-09-04T18:10:44.203Z,64.20
2018-09-04T18:13:12.650Z,63.00
2018-09-04T18:15:41.071Z,61.70
2018-09-04T18:18:09.449Z,61.30
2018-09-04T18:20:37.767Z,61.30
2018-09-04T18:23:06.155Z,61.00
2018-09-04T18:25:34.493Z,61.20
2018-09-04T18:28:02.988Z,60.90
2018-09-04T18:30:31.356Z,61.70
2018-09-04T18:32:59.767Z,62.10
2018-09-04T18:35:28.235Z,61.90
2018-09-04T18:37:56.767Z,62.20
2018-09-04T18:40:25.134Z,61.90
2018-09-04T18:42:53.556Z,61.50
2018-09-04T18:45:50.839Z,62.20
2018-09-04T18:48:19.386Z,61.90
2018-09-04T18:50:47.915Z,62.30
2018-09-04T18:53:16.470Z,62.50
2018-09-04T18:55:44.933Z,62.90
2018-09-04T18:58:13.670Z,63.20
2018-09-04T19:00:42.544Z,63.30
2018-09-04T19:03:11.140Z,63.90
2018-09-04T19:05:40.416Z,64.10
2018-09-04T19:08:08.860Z,64.00
2018-09-04T19:10:37.356Z,63.60
2018-09-04T19:13:05.868Z,63.30
2018-09-04T19:15:34.539Z,63.10
2018-09-04T19:18:03.260Z,63.50
2018-09-04T19:20:31.765Z,63.80
2018-09-04T19:23:01.017Z,63.60
2018-09-04T19:25:29.485Z,63.10
2018-09-04T19:27:58.188Z,63.70
2018-09-04T19:30:26.944Z,64.10
2018-09-04T19:32:55.629Z,64.30
2018-09-04T19:35:24.063Z,64.50
2018-09-04T19:37:52.868Z,64.50
2018-09-04T19:40:21.453Z,64.60
2018-09-04T19:42:50.237Z,64.80
2018-09-04T19:45:19.036Z,65.10
2018-09-04T19:47:47.929Z,65.30
2018-09-04T19:50:17.224Z,65.50
2018-09-04T19:52:46.094Z,65.50
2018-09-04T19:55:14.772Z,65.60
2018-09-04T19:57:43.260Z,65.70
2018-09-04T20:00:11.857Z,65.90
2018-09-04T20:02:40.311Z,66.00
2018-09-04T20:05:09.477Z,65.60
2018-09-04T20:07:37.932Z,64.20
2018-09-04T20:10:07.155Z,64.00
2018-09-04T20:12:35.956Z,64.20
2018-09-04T20:15:05.251Z,64.60
2018-09-04T20:17:34.067Z,64.70
2018-09-04T20:20:02.548Z,64.70
2018-09-04T20:22:30.998Z,64.60
2018-09-04T20:24:59.443Z,64.70
2018-09-04T20:27:27.815Z,64.90
2018-09-04T20:29:56.274Z,65.10
2018-09-04T20:32:24.783Z,65.30
2018-09-04T20:34:53.534Z,65.40
2018-09-04T20:37:22.063Z,65.70
2018-09-04T20:39:50.903Z,65.60
2018-09-04T20:42:19.405Z,65.60
2018-09-04T20:44:47.975Z,65.20
2018-09-04T20:47:16.434Z,65.40
2018-09-04T20:49:44.858Z,65.50
2018-09-04T20:52:13.304Z,65.50
2018-09-04T20:54:42.088Z,65.70
2018-09-04T20:57:28.795Z,65.70
2018-09-04T21:00:09.975Z,65.80
2018-09-04T21:02:50.002Z,65.80
2018-09-04T21:05:30.183Z,65.90
2018-09-04T21:08:16.309Z,66.00
2018-09-04T21:10:45.368Z,66.20
2018-09-04T21:13:14.448Z,66.40
2018-09-04T21:15:42.962Z,66.50
2018-09-04T21:18:11.424Z,66.50
2018-09-04T21:20:41.257Z,66.70
2018-09-04T21:23:10.155Z,66.60
2018-09-04T21:25:39.943Z,66.70
2018-09-04T21:28:08.725Z,66.90
2018-09-04T21:30:37.961Z,67.00
2018-09-04T21:33:07.461Z,67.10
2018-09-04T21:35:36.235Z,67.20
2018-09-04T21:38:05.017Z,67.30
2018-09-04T21:40:33.559Z,67.20
2018-09-04T21:43:02.030Z,67.20
2018-09-04T21:45:31.582Z,67.40
2018-09-04T21:48:00.119Z,67.60
2018-09-04T21:50:28.760Z,67.70
2018-09-04T21:52:57.837Z,68.00
2018-09-04T21:55:27.080Z,68.30
2018-09-04T21:57:55.663Z,68.30
2018-09-04T22:00:27.356Z,68.40
2018-09-04T22:02:57.226Z,68.50
2018-09-04T22:05:26.850Z,68.70
2018-09-04T22:07:57.129Z,68.50
2018-09-04T22:10:27.062Z,68.80
2018-09-04T22:12:56.798Z,68.60
2018-09-04T22:15:25.520Z,69.00
2018-09-04T22:17:54.203Z,69.30
2018-09-04T22:20:23.129Z,69.10
2018-09-04T22:22:51.989Z,69.00
2018-09-04T22:25:20.654Z,69.00
2018-09-04T22:27:49.336Z,69.20
2018-09-04T22:30:18.019Z,69.40
2018-09-04T22:33:17.567Z,69.60
2018-09-04T22:35:46.357Z,69.30
2018-09-04T22:38:14.734Z,69.30
2018-09-04T22:40:43.379Z,69.20
2018-09-04T22:43:11.883Z,69.30
2018-09-04T22:45:40.297Z,69.20
2018-09-04T22:48:08.654Z,69.20
2018-09-04T22:50:42.421Z,69.30
2018-09-04T22:53:10.811Z,69.50
2018-09-04T22:55:39.178Z,69.60
2018-09-04T22:58:07.613Z,69.80
2018-09-04T23:00:36.266Z,69.70
2018-09-04T23:03:04.652Z,69.80
2018-09-04T23:05:33.091Z,69.70
2018-09-04T23:08:01.442Z,69.60
2018-09-04T23:10:29.937Z,69.60
2018-09-04T23:12:58.609Z,69.70
2018-09-04T23:15:27.051Z,69.90
2018-09-04T23:17:55.552Z,69.90
2018-09-04T23:20:23.988Z,70.00
2018-09-04T23:22:53.359Z,70.10
2018-09-04T23:25:21.760Z,70.10
2018-09-04T23:27:50.318Z,69.90
2018-09-04T23:30:18.706Z,70.00
2018-09-04T23:32:47.218Z,69.90
2018-09-04T23:35:15.765Z,69.70
2018-09-04T23:37:44.561Z,69.60
2018-09-04T23:40:13.685Z,69.40
2018-09-04T23:42:43.013Z,69.60
2018-09-04T23:45:13.546Z,69.60
2018-09-04T23:47:43.228Z,70.00
2018-09-04T23:50:12.559Z,70.10
2018-09-04T23:52:41.901Z,70.10
2018-09-04T23:56:30.212Z,70.10
2018-09-04T23:58:59.841Z,70.10
